CheckWX is a tool to help pilots better visualize weather data.  It is not intended as a substitute for an official pre-flight weather briefing.

02:10:40 UTC

KGAI METAR
Montgomery County Airpark
Gaithersburg, Maryland, USA
Current

15 mins ago

KGAI 180156Z AUTO 14004KT 8SM UP OVC028 00/M01 A2994 RMK AO2 SLP170 P0003 T00001011 FZRANO
Observed
Feb-18 @ 01:56 UTC
Wind
  • 140° at 4 KTS
Visibility
8 SM
Flight Rules
MVFR
Conditions
Unknown precipitation
Cloud Levels
  • Overcast at 2,800' AGL
Temperature
C / 32°F
Dewpoint
-1°C / 30°F
Humidity
93%
Altimeter
29.94" Hg
Pressure
1017 hPa
Current Rain
0.03"
Previous

1 hour ago

KGAI 180056Z AUTO 14006KT 10SM UP OVC032 00/M02 A2994 RMK AO2 RAE06UPB18SNB06E18B24E38 SLP170 P0003 T00001017 FZRANO
Observed
Feb-18 @ 00:56 UTC
Wind
  • 140° at 6 KTS
Visibility
10 SM
Flight Rules
VFR
Conditions
Unknown precipitation
Cloud Levels
  • Overcast at 3,200' AGL
Temperature
C / 32°F
Dewpoint
-2°C / 28°F
Humidity
87%
Altimeter
29.94" Hg
Pressure
1017 hPa
Current Rain
0.03"
Previous

2 hours ago

KGAI 172356Z AUTO 13013KT 10SM -RA BKN032 BKN055 OVC070 01/M03 A2994 RMK AO2 UPB24E31 PRESFR SLP169 P0000 60000 T00061028 10039 20006 58020 FZRANO
Observed
Feb-17 @ 23:56 UTC
Wind
  • 130° at 13 KTS
Visibility
10 SM
Flight Rules
VFR
Conditions
Light Rain
Cloud Levels
  • Broken at 3,200' AGL
  • Broken at 5,500' AGL
  • Overcast at 7,000' AGL
Temperature
C / 34°F
Dewpoint
-3°C / 27°F
Humidity
75%
Altimeter
29.94" Hg
Pressure
1016.9 hPa
Current Rain
0.01"